sensor_id;sensor_type;location;lat;lon;timestamp;P1;durP1;ratioP1;P2;durP2;ratioP2
2211;SDS011;48849;48.758;9.158;2023-01-08T00:00:01;6.60;;;6.00;;
2211;SDS011;48849;48.758;9.158;2023-01-08T00:02:29;7.30;;;6.60;;
2211;SDS011;48849;48.758;9.158;2023-01-08T00:04:56;6.70;;;6.00;;
2211;SDS011;48849;48.758;9.158;2023-01-08T00:07:22;6.20;;;5.47;;
2211;SDS011;48849;48.758;9.158;2023-01-08T00:09:49;7.65;;;6.90;;
2211;SDS011;48849;48.758;9.158;2023-01-08T00:12:16;7.15;;;6.45;;
2211;SDS011;48849;48.758;9.158;2023-01-08T00:14:43;6.50;;;5.93;;
2211;SDS011;48849;48.758;9.158;2023-01-08T00:17:10;6.82;;;6.22;;
2211;SDS011;48849;48.758;9.158;2023-01-08T00:19:38;7.20;;;6.60;;
2211;SDS011;48849;48.758;9.158;2023-01-08T00:22:06;6.88;;;6.18;;
2211;SDS011;48849;48.758;9.158;2023-01-08T00:24:32;6.70;;;6.07;;
2211;SDS011;48849;48.758;9.158;2023-01-08T00:26:59;7.43;;;6.72;;
2211;SDS011;48849;48.758;9.158;2023-01-08T00:29:25;7.03;;;6.32;;
2211;SDS011;48849;48.758;9.158;2023-01-08T00:31:52;7.80;;;6.85;;
2211;SDS011;48849;48.758;9.158;2023-01-08T00:34:19;6.97;;;6.32;;
2211;SDS011;48849;48.758;9.158;2023-01-08T00:36:47;7.15;;;6.20;;
2211;SDS011;48849;48.758;9.158;2023-01-08T00:39:13;6.72;;;6.05;;
2211;SDS011;48849;48.758;9.158;2023-01-08T00:41:40;5.80;;;5.30;;
2211;SDS011;48849;48.758;9.158;2023-01-08T00:44:08;7.47;;;6.00;;
2211;SDS011;48849;48.758;9.158;2023-01-08T00:46:35;6.78;;;6.13;;
2211;SDS011;48849;48.758;9.158;2023-01-08T00:49:02;6.25;;;5.75;;
2211;SDS011;48849;48.758;9.158;2023-01-08T00:51:28;6.28;;;5.68;;
2211;SDS011;48849;48.758;9.158;2023-01-08T00:53:56;6.60;;;5.97;;
2211;SDS011;48849;48.758;9.158;2023-01-08T00:56:23;7.53;;;6.38;;
2211;SDS011;48849;48.758;9.158;2023-01-08T00:58:49;8.38;;;7.18;;
2211;SDS011;48849;48.758;9.158;2023-01-08T01:01:16;8.40;;;7.25;;
2211;SDS011;48849;48.758;9.158;2023-01-08T01:03:43;6.90;;;5.88;;
2211;SDS011;48849;48.758;9.158;2023-01-08T01:06:10;7.20;;;5.82;;
2211;SDS011;48849;48.758;9.158;2023-01-08T01:08:38;6.55;;;5.95;;
2211;SDS011;48849;48.758;9.158;2023-01-08T01:11:07;6.82;;;5.70;;
2211;SDS011;48849;48.758;9.158;2023-01-08T01:13:36;5.65;;;5.15;;
2211;SDS011;48849;48.758;9.158;2023-01-08T01:16:02;6.95;;;6.25;;
2211;SDS011;48849;48.758;9.158;2023-01-08T01:18:30;6.80;;;6.20;;
2211;SDS011;48849;48.758;9.158;2023-01-08T01:20:56;6.45;;;5.75;;
2211;SDS011;48849;48.758;9.158;2023-01-08T01:23:23;6.68;;;5.97;;
2211;SDS011;48849;48.758;9.158;2023-01-08T01:25:50;6.55;;;5.95;;
2211;SDS011;48849;48.758;9.158;2023-01-08T01:28:19;7.30;;;5.50;;
2211;SDS011;48849;48.758;9.158;2023-01-08T01:30:51;7.72;;;6.25;;
2211;SDS011;48849;48.758;9.158;2023-01-08T01:33:19;6.35;;;5.57;;
2211;SDS011;48849;48.758;9.158;2023-01-08T01:35:46;5.88;;;5.18;;
2211;SDS011;48849;48.758;9.158;2023-01-08T01:38:12;6.47;;;5.82;;
2211;SDS011;48849;48.758;9.158;2023-01-08T01:40:40;6.20;;;5.70;;
2211;SDS011;48849;48.758;9.158;2023-01-08T01:43:08;6.80;;;6.10;;
2211;SDS011;48849;48.758;9.158;2023-01-08T01:45:39;6.18;;;5.13;;
2211;SDS011;48849;48.758;9.158;2023-01-08T01:48:08;6.13;;;5.45;;
2211;SDS011;48849;48.758;9.158;2023-01-08T01:50:36;6.32;;;5.60;;
2211;SDS011;48849;48.758;9.158;2023-01-08T01:53:07;5.80;;;5.20;;
2211;SDS011;48849;48.758;9.158;2023-01-08T01:55:36;6.30;;;5.75;;
2211;SDS011;48849;48.758;9.158;2023-01-08T01:58:07;6.28;;;5.68;;
2211;SDS011;48849;48.758;9.158;2023-01-08T02:00:36;6.70;;;6.03;;
2211;SDS011;48849;48.758;9.158;2023-01-08T02:03:05;6.35;;;5.75;;
2211;SDS011;48849;48.758;9.158;2023-01-08T02:05:35;5.53;;;5.03;;
2211;SDS011;48849;48.758;9.158;2023-01-08T02:08:08;6.05;;;5.45;;
2211;SDS011;48849;48.758;9.158;2023-01-08T02:10:39;5.32;;;4.82;;
2211;SDS011;48849;48.758;9.158;2023-01-08T02:13:13;6.53;;;5.80;;
2211;SDS011;48849;48.758;9.158;2023-01-08T02:15:46;6.10;;;5.50;;
2211;SDS011;48849;48.758;9.158;2023-01-08T02:18:23;6.70;;;5.68;;
2211;SDS011;48849;48.758;9.158;2023-01-08T02:20:55;6.13;;;5.63;;
2211;SDS011;48849;48.758;9.158;2023-01-08T02:23:29;5.88;;;5.43;;
2211;SDS011;48849;48.758;9.158;2023-01-08T02:26:08;5.50;;;5.00;;
2211;SDS011;48849;48.758;9.158;2023-01-08T02:28:39;7.35;;;5.75;;
2211;SDS011;48849;48.758;9.158;2023-01-08T02:31:09;5.60;;;5.10;;
2211;SDS011;48849;48.758;9.158;2023-01-08T02:33:38;6.05;;;5.00;;
2211;SDS011;48849;48.758;9.158;2023-01-08T02:36:16;6.22;;;5.50;;
2211;SDS011;48849;48.758;9.158;2023-01-08T02:38:54;9.95;;;5.60;;
2211;SDS011;48849;48.758;9.158;2023-01-08T02:41:31;6.43;;;5.80;;
2211;SDS011;48849;48.758;9.158;2023-01-08T02:44:06;7.15;;;6.13;;
2211;SDS011;48849;48.758;9.158;2023-01-08T02:46:35;5.82;;;5.32;;
2211;SDS011;48849;48.758;9.158;2023-01-08T02:49:06;6.38;;;5.78;;
2211;SDS011;48849;48.758;9.158;2023-01-08T02:51:36;6.28;;;5.68;;
2211;SDS011;48849;48.758;9.158;2023-01-08T02:54:08;5.20;;;4.68;;
2211;SDS011;48849;48.758;9.158;2023-01-08T02:56:41;5.28;;;4.78;;
2211;SDS011;48849;48.758;9.158;2023-01-08T02:59:11;5.78;;;5.28;;
2211;SDS011;48849;48.758;9.158;2023-01-08T03:01:40;5.80;;;5.30;;
2211;SDS011;48849;48.758;9.158;2023-01-08T03:04:10;5.55;;;4.80;;
2211;SDS011;48849;48.758;9.158;2023-01-08T03:06:40;6.13;;;5.53;;
2211;SDS011;48849;48.758;9.158;2023-01-08T03:09:07;5.72;;;5.22;;
2211;SDS011;48849;48.758;9.158;2023-01-08T03:11:35;5.72;;;5.20;;
2211;SDS011;48849;48.758;9.158;2023-01-08T03:14:10;5.20;;;4.70;;
2211;SDS011;48849;48.758;9.158;2023-01-08T03:16:41;6.10;;;5.53;;
2211;SDS011;48849;48.758;9.158;2023-01-08T03:19:14;6.00;;;5.40;;
2211;SDS011;48849;48.758;9.158;2023-01-08T03:21:45;6.53;;;5.70;;
2211;SDS011;48849;48.758;9.158;2023-01-08T03:24:14;5.95;;;5.30;;
2211;SDS011;48849;48.758;9.158;2023-01-08T03:26:45;6.03;;;5.43;;
2211;SDS011;48849;48.758;9.158;2023-01-08T03:29:15;5.75;;;5.00;;
2211;SDS011;48849;48.758;9.158;2023-01-08T03:31:45;5.55;;;5.05;;
2211;SDS011;48849;48.758;9.158;2023-01-08T03:34:13;5.63;;;5.13;;
2211;SDS011;48849;48.758;9.158;2023-01-08T03:36:42;5.57;;;5.03;;
2211;SDS011;48849;48.758;9.158;2023-01-08T03:39:11;6.10;;;5.60;;
2211;SDS011;48849;48.758;9.158;2023-01-08T03:41:42;5.00;;;4.55;;
2211;SDS011;48849;48.758;9.158;2023-01-08T03:44:10;5.22;;;4.70;;
2211;SDS011;48849;48.758;9.158;2023-01-08T03:46:37;5.45;;;5.03;;
2211;SDS011;48849;48.758;9.158;2023-01-08T03:49:08;5.95;;;4.72;;
2211;SDS011;48849;48.758;9.158;2023-01-08T03:51:39;5.90;;;5.40;;
2211;SDS011;48849;48.758;9.158;2023-01-08T03:54:07;4.85;;;4.45;;
2211;SDS011;48849;48.758;9.158;2023-01-08T03:56:36;5.40;;;4.90;;
2211;SDS011;48849;48.758;9.158;2023-01-08T03:59:03;5.22;;;4.72;;
2211;SDS011;48849;48.758;9.158;2023-01-08T04:01:31;4.95;;;4.50;;
2211;SDS011;48849;48.758;9.158;2023-01-08T04:03:57;6.43;;;5.43;;
2211;SDS011;48849;48.758;9.158;2023-01-08T04:06:24;6.03;;;5.43;;
2211;SDS011;48849;48.758;9.158;2023-01-08T04:08:51;6.15;;;5.30;;
2211;SDS011;48849;48.758;9.158;2023-01-08T04:11:17;5.43;;;4.93;;
2211;SDS011;48849;48.758;9.158;2023-01-08T04:13:44;6.22;;;5.00;;
2211;SDS011;48849;48.758;9.158;2023-01-08T04:16:11;8.40;;;6.13;;
2211;SDS011;48849;48.758;9.158;2023-01-08T04:18:39;5.55;;;5.05;;
2211;SDS011;48849;48.758;9.158;2023-01-08T04:21:06;5.97;;;4.95;;
2211;SDS011;48849;48.758;9.158;2023-01-08T04:23:33;5.80;;;5.20;;
2211;SDS011;48849;48.758;9.158;2023-01-08T04:26:02;6.20;;;5.60;;
2211;SDS011;48849;48.758;9.158;2023-01-08T04:28:29;6.70;;;6.10;;
2211;SDS011;48849;48.758;9.158;2023-01-08T04:30:56;5.20;;;4.70;;
2211;SDS011;48849;48.758;9.158;2023-01-08T04:33:23;6.25;;;5.10;;
2211;SDS011;48849;48.758;9.158;2023-01-08T04:35:51;6.00;;;5.40;;
2211;SDS011;48849;48.758;9.158;2023-01-08T04:38:18;5.50;;;5.00;;
2211;SDS011;48849;48.758;9.158;2023-01-08T04:40:45;5.18;;;4.68;;
2211;SDS011;48849;48.758;9.158;2023-01-08T04:43:11;6.13;;;5.32;;
2211;SDS011;48849;48.758;9.158;2023-01-08T04:45:38;4.70;;;4.30;;
2211;SDS011;48849;48.758;9.158;2023-01-08T04:48:05;5.13;;;4.70;;
2211;SDS011;48849;48.758;9.158;2023-01-08T04:50:32;5.10;;;4.70;;
2211;SDS011;48849;48.758;9.158;2023-01-08T04:53:00;5.68;;;4.85;;
2211;SDS011;48849;48.758;9.158;2023-01-08T04:55:26;5.10;;;4.60;;
2211;SDS011;48849;48.758;9.158;2023-01-08T04:57:53;4.45;;;4.05;;
2211;SDS011;48849;48.758;9.158;2023-01-08T05:00:20;7.05;;;4.60;;
2211;SDS011;48849;48.758;9.158;2023-01-08T05:02:47;4.60;;;4.20;;
2211;SDS011;48849;48.758;9.158;2023-01-08T05:05:13;4.80;;;4.40;;
2211;SDS011;48849;48.758;9.158;2023-01-08T05:07:40;4.05;;;3.70;;
2211;SDS011;48849;48.758;9.158;2023-01-08T05:10:09;4.47;;;4.07;;
2211;SDS011;48849;48.758;9.158;2023-01-08T05:12:35;4.35;;;3.95;;
2211;SDS011;48849;48.758;9.158;2023-01-08T05:15:02;4.97;;;3.80;;
2211;SDS011;48849;48.758;9.158;2023-01-08T05:17:29;3.92;;;2.90;;
2211;SDS011;48849;48.758;9.158;2023-01-08T05:19:56;4.38;;;3.50;;
2211;SDS011;48849;48.758;9.158;2023-01-08T05:22:23;3.67;;;3.30;;
2211;SDS011;48849;48.758;9.158;2023-01-08T05:24:49;3.85;;;3.40;;
2211;SDS011;48849;48.758;9.158;2023-01-08T05:27:18;4.55;;;2.70;;
2211;SDS011;48849;48.758;9.158;2023-01-08T05:29:44;3.67;;;2.42;;
2211;SDS011;48849;48.758;9.158;2023-01-08T05:32:12;2.33;;;2.13;;
2211;SDS011;48849;48.758;9.158;2023-01-08T05:34:41;3.05;;;2.40;;
2211;SDS011;48849;48.758;9.158;2023-01-08T05:37:08;4.82;;;2.20;;
2211;SDS011;48849;48.758;9.158;2023-01-08T05:39:35;3.05;;;2.53;;
2211;SDS011;48849;48.758;9.158;2023-01-08T05:42:02;2.65;;;2.03;;
2211;SDS011;48849;48.758;9.158;2023-01-08T05:44:30;3.17;;;2.17;;
2211;SDS011;48849;48.758;9.158;2023-01-08T05:46:57;2.40;;;2.20;;
2211;SDS011;48849;48.758;9.158;2023-01-08T05:49:23;2.47;;;2.28;;
2211;SDS011;48849;48.758;9.158;2023-01-08T05:51:50;2.15;;;1.95;;
2211;SDS011;48849;48.758;9.158;2023-01-08T05:54:17;2.15;;;1.95;;
2211;SDS011;48849;48.758;9.158;2023-01-08T05:56:43;4.25;;;2.20;;
2211;SDS011;48849;48.758;9.158;2023-01-08T05:59:10;2.15;;;1.95;;
2211;SDS011;48849;48.758;9.158;2023-01-08T06:01:39;2.50;;;2.30;;
2211;SDS011;48849;48.758;9.158;2023-01-08T06:04:05;2.42;;;2.08;;
2211;SDS011;48849;48.758;9.158;2023-01-08T06:06:32;2.33;;;2.13;;
2211;SDS011;48849;48.758;9.158;2023-01-08T06:08:59;2.30;;;2.15;;
2211;SDS011;48849;48.758;9.158;2023-01-08T06:11:25;2.30;;;2.10;;
2211;SDS011;48849;48.758;9.158;2023-01-08T06:13:52;2.10;;;2.00;;
2211;SDS011;48849;48.758;9.158;2023-01-08T06:16:19;2.08;;;1.90;;
2211;SDS011;48849;48.758;9.158;2023-01-08T06:18:47;2.03;;;1.90;;
2211;SDS011;48849;48.758;9.158;2023-01-08T06:21:13;1.80;;;1.70;;
2211;SDS011;48849;48.758;9.158;2023-01-08T06:23:40;2.20;;;2.00;;
2211;SDS011;48849;48.758;9.158;2023-01-08T06:26:07;2.38;;;2.17;;
2211;SDS011;48849;48.758;9.158;2023-01-08T06:28:34;1.85;;;1.75;;
2211;SDS011;48849;48.758;9.158;2023-01-08T06:31:01;2.05;;;1.75;;
2211;SDS011;48849;48.758;9.158;2023-01-08T06:33:29;1.80;;;1.70;;
2211;SDS011;48849;48.758;9.158;2023-01-08T06:35:59;2.53;;;2.03;;
2211;SDS011;48849;48.758;9.158;2023-01-08T06:38:29;3.42;;;1.48;;
2211;SDS011;48849;48.758;9.158;2023-01-08T06:40:56;2.00;;;1.90;;
2211;SDS011;48849;48.758;9.158;2023-01-08T06:43:23;1.98;;;1.88;;
2211;SDS011;48849;48.758;9.158;2023-01-08T06:45:52;1.80;;;1.70;;
2211;SDS011;48849;48.758;9.158;2023-01-08T06:48:19;1.80;;;1.70;;
2211;SDS011;48849;48.758;9.158;2023-01-08T06:50:46;1.88;;;1.77;;
2211;SDS011;48849;48.758;9.158;2023-01-08T06:53:14;1.73;;;1.63;;
2211;SDS011;48849;48.758;9.158;2023-01-08T06:55:41;1.80;;;1.70;;
2211;SDS011;48849;48.758;9.158;2023-01-08T06:58:08;1.80;;;1.70;;
2211;SDS011;48849;48.758;9.158;2023-01-08T07:00:37;2.28;;;1.85;;
2211;SDS011;48849;48.758;9.158;2023-01-08T07:03:04;1.60;;;1.50;;
2211;SDS011;48849;48.758;9.158;2023-01-08T07:05:30;1.63;;;1.40;;
2211;SDS011;48849;48.758;9.158;2023-01-08T07:07:57;1.83;;;1.73;;
2211;SDS011;48849;48.758;9.158;2023-01-08T07:10:25;1.77;;;1.67;;
2211;SDS011;48849;48.758;9.158;2023-01-08T07:12:52;1.95;;;1.60;;
2211;SDS011;48849;48.758;9.158;2023-01-08T07:15:18;1.95;;;1.85;;
2211;SDS011;48849;48.758;9.158;2023-01-08T07:17:45;3.58;;;1.95;;
2211;SDS011;48849;48.758;9.158;2023-01-08T07:20:12;2.20;;;1.85;;
2211;SDS011;48849;48.758;9.158;2023-01-08T07:22:38;1.40;;;1.30;;
2211;SDS011;48849;48.758;9.158;2023-01-08T07:25:05;1.60;;;1.50;;
2211;SDS011;48849;48.758;9.158;2023-01-08T07:27:34;1.50;;;1.40;;
2211;SDS011;48849;48.758;9.158;2023-01-08T07:30:01;1.90;;;1.80;;
2211;SDS011;48849;48.758;9.158;2023-01-08T07:32:28;2.05;;;1.60;;
2211;SDS011;48849;48.758;9.158;2023-01-08T07:34:54;1.40;;;1.30;;
2211;SDS011;48849;48.758;9.158;2023-01-08T07:37:23;1.58;;;1.48;;
2211;SDS011;48849;48.758;9.158;2023-01-08T07:39:49;1.60;;;1.50;;
2211;SDS011;48849;48.758;9.158;2023-01-08T07:42:17;2.17;;;1.63;;
2211;SDS011;48849;48.758;9.158;2023-01-08T07:44:45;1.50;;;1.40;;
2211;SDS011;48849;48.758;9.158;2023-01-08T07:47:11;1.40;;;1.30;;
2211;SDS011;48849;48.758;9.158;2023-01-08T07:49:38;2.10;;;1.83;;
2211;SDS011;48849;48.758;9.158;2023-01-08T07:52:05;1.67;;;1.58;;
2211;SDS011;48849;48.758;9.158;2023-01-08T07:54:31;2.83;;;1.60;;
2211;SDS011;48849;48.758;9.158;2023-01-08T07:56:58;1.80;;;1.70;;
2211;SDS011;48849;48.758;9.158;2023-01-08T07:59:24;1.42;;;1.33;;
2211;SDS011;48849;48.758;9.158;2023-01-08T08:01:52;1.60;;;1.50;;
2211;SDS011;48849;48.758;9.158;2023-01-08T08:04:19;1.60;;;1.45;;
2211;SDS011;48849;48.758;9.158;2023-01-08T08:06:46;2.05;;;1.60;;
2211;SDS011;48849;48.758;9.158;2023-01-08T08:09:12;1.60;;;1.50;;
2211;SDS011;48849;48.758;9.158;2023-01-08T08:11:39;1.50;;;1.40;;
2211;SDS011;48849;48.758;9.158;2023-01-08T08:14:06;1.65;;;1.55;;
2211;SDS011;48849;48.758;9.158;2023-01-08T08:16:33;2.33;;;1.45;;
2211;SDS011;48849;48.758;9.158;2023-01-08T08:19:01;2.30;;;1.40;;
2211;SDS011;48849;48.758;9.158;2023-01-08T08:21:28;1.98;;;1.40;;
2211;SDS011;48849;48.758;9.158;2023-01-08T08:23:54;1.65;;;1.55;;
2211;SDS011;48849;48.758;9.158;2023-01-08T08:26:21;1.40;;;1.30;;
2211;SDS011;48849;48.758;9.158;2023-01-08T08:28:48;1.65;;;1.55;;
2211;SDS011;48849;48.758;9.158;2023-01-08T08:31:15;1.67;;;1.48;;
2211;SDS011;48849;48.758;9.158;2023-01-08T08:33:42;1.50;;;1.40;;
2211;SDS011;48849;48.758;9.158;2023-01-08T08:36:10;1.73;;;1.63;;
2211;SDS011;48849;48.758;9.158;2023-01-08T08:38:37;1.90;;;1.77;;
2211;SDS011;48849;48.758;9.158;2023-01-08T08:41:04;1.80;;;1.70;;
2211;SDS011;48849;48.758;9.158;2023-01-08T08:43:31;1.77;;;1.67;;
2211;SDS011;48849;48.758;9.158;2023-01-08T08:45:57;1.85;;;1.70;;
2211;SDS011;48849;48.758;9.158;2023-01-08T08:48:24;1.77;;;1.67;;
2211;SDS011;48849;48.758;9.158;2023-01-08T08:50:51;1.92;;;1.80;;
2211;SDS011;48849;48.758;9.158;2023-01-08T08:53:19;1.80;;;1.70;;
2211;SDS011;48849;48.758;9.158;2023-01-08T08:55:45;2.08;;;1.98;;
2211;SDS011;48849;48.758;9.158;2023-01-08T08:58:12;2.05;;;1.83;;
2211;SDS011;48849;48.758;9.158;2023-01-08T09:00:39;2.15;;;1.83;;
2211;SDS011;48849;48.758;9.158;2023-01-08T09:03:08;1.83;;;1.70;;
2211;SDS011;48849;48.758;9.158;2023-01-08T09:05:37;1.70;;;1.60;;
2211;SDS011;48849;48.758;9.158;2023-01-08T09:08:04;3.38;;;1.70;;
2211;SDS011;48849;48.758;9.158;2023-01-08T09:10:32;1.92;;;1.63;;
2211;SDS011;48849;48.758;9.158;2023-01-08T09:12:59;1.80;;;1.70;;
2211;SDS011;48849;48.758;9.158;2023-01-08T09:15:25;2.95;;;1.92;;
2211;SDS011;48849;48.758;9.158;2023-01-08T09:17:52;1.90;;;1.80;;
2211;SDS011;48849;48.758;9.158;2023-01-08T09:20:20;2.10;;;2.00;;
2211;SDS011;48849;48.758;9.158;2023-01-08T09:22:47;1.90;;;1.70;;
2211;SDS011;48849;48.758;9.158;2023-01-08T09:25:13;1.88;;;1.77;;
2211;SDS011;48849;48.758;9.158;2023-01-08T09:27:42;1.70;;;1.60;;
2211;SDS011;48849;48.758;9.158;2023-01-08T09:30:09;1.88;;;1.77;;
2211;SDS011;48849;48.758;9.158;2023-01-08T09:32:37;1.98;;;1.88;;
2211;SDS011;48849;48.758;9.158;2023-01-08T09:35:03;2.30;;;2.10;;
2211;SDS011;48849;48.758;9.158;2023-01-08T09:37:30;2.65;;;2.00;;
2211;SDS011;48849;48.758;9.158;2023-01-08T09:39:57;1.80;;;1.70;;
2211;SDS011;48849;48.758;9.158;2023-01-08T09:42:24;1.77;;;1.42;;
2211;SDS011;48849;48.758;9.158;2023-01-08T09:44:55;1.65;;;1.55;;
2211;SDS011;48849;48.758;9.158;2023-01-08T09:47:25;1.80;;;1.70;;
2211;SDS011;48849;48.758;9.158;2023-01-08T09:49:56;2.63;;;2.17;;
2211;SDS011;48849;48.758;9.158;2023-01-08T09:52:26;2.47;;;2.13;;
2211;SDS011;48849;48.758;9.158;2023-01-08T09:54:54;2.00;;;1.90;;
2211;SDS011;48849;48.758;9.158;2023-01-08T09:57:21;2.75;;;2.00;;
2211;SDS011;48849;48.758;9.158;2023-01-08T09:59:48;2.08;;;1.73;;
2211;SDS011;48849;48.758;9.158;2023-01-08T10:02:17;2.75;;;1.65;;
2211;SDS011;48849;48.758;9.158;2023-01-08T10:04:46;1.83;;;1.73;;
2211;SDS011;48849;48.758;9.158;2023-01-08T10:07:18;2.22;;;2.03;;
2211;SDS011;48849;48.758;9.158;2023-01-08T10:09:46;2.80;;;2.20;;
2211;SDS011;48849;48.758;9.158;2023-01-08T10:12:14;2.33;;;2.13;;
2211;SDS011;48849;48.758;9.158;2023-01-08T10:14:45;2.00;;;1.90;;
2211;SDS011;48849;48.758;9.158;2023-01-08T10:17:19;2.30;;;2.10;;
2211;SDS011;48849;48.758;9.158;2023-01-08T10:19:50;2.30;;;2.10;;
2211;SDS011;48849;48.758;9.158;2023-01-08T10:22:19;1.88;;;1.77;;
2211;SDS011;48849;48.758;9.158;2023-01-08T10:24:47;1.50;;;1.40;;
2211;SDS011;48849;48.758;9.158;2023-01-08T10:27:14;1.60;;;1.50;;
2211;SDS011;48849;48.758;9.158;2023-01-08T10:29:42;1.52;;;1.42;;
2211;SDS011;48849;48.758;9.158;2023-01-08T10:32:12;2.53;;;1.77;;
2211;SDS011;48849;48.758;9.158;2023-01-08T10:34:46;2.03;;;1.73;;
2211;SDS011;48849;48.758;9.158;2023-01-08T10:37:22;3.33;;;2.97;;
2211;SDS011;48849;48.758;9.158;2023-01-08T10:39:51;2.40;;;2.13;;
2211;SDS011;48849;48.758;9.158;2023-01-08T10:42:20;2.45;;;2.15;;
2211;SDS011;48849;48.758;9.158;2023-01-08T10:44:51;2.50;;;2.30;;
2211;SDS011;48849;48.758;9.158;2023-01-08T10:47:22;4.15;;;2.60;;
2211;SDS011;48849;48.758;9.158;2023-01-08T10:49:51;2.20;;;2.00;;
2211;SDS011;48849;48.758;9.158;2023-01-08T10:52:25;1.70;;;1.60;;
2211;SDS011;48849;48.758;9.158;2023-01-08T10:54:55;1.35;;;1.25;;
2211;SDS011;48849;48.758;9.158;2023-01-08T10:57:23;2.05;;;1.50;;
2211;SDS011;48849;48.758;9.158;2023-01-08T10:59:52;1.55;;;1.45;;
2211;SDS011;48849;48.758;9.158;2023-01-08T11:02:32;2.17;;;1.70;;
2211;SDS011;48849;48.758;9.158;2023-01-08T11:05:01;1.83;;;1.63;;
2211;SDS011;48849;48.758;9.158;2023-01-08T11:07:31;2.10;;;1.88;;
2211;SDS011;48849;48.758;9.158;2023-01-08T11:09:59;1.52;;;1.42;;
2211;SDS011;48849;48.758;9.158;2023-01-08T11:12:30;1.30;;;1.20;;
2211;SDS011;48849;48.758;9.158;2023-01-08T11:15:03;1.60;;;1.30;;
2211;SDS011;48849;48.758;9.158;2023-01-08T11:17:31;2.28;;;1.35;;
2211;SDS011;48849;48.758;9.158;2023-01-08T11:20:07;4.35;;;2.28;;
2211;SDS011;48849;48.758;9.158;2023-01-08T11:22:42;2.47;;;1.90;;
2211;SDS011;48849;48.758;9.158;2023-01-08T11:25:10;2.60;;;2.15;;
2211;SDS011;48849;48.758;9.158;2023-01-08T11:27:40;2.58;;;2.08;;
2211;SDS011;48849;48.758;9.158;2023-01-08T11:30:10;1.58;;;1.15;;
2211;SDS011;48849;48.758;9.158;2023-01-08T11:32:42;2.50;;;1.70;;
2211;SDS011;48849;48.758;9.158;2023-01-08T11:35:16;1.30;;;1.20;;
2211;SDS011;48849;48.758;9.158;2023-01-08T11:37:47;1.40;;;1.30;;
2211;SDS011;48849;48.758;9.158;2023-01-08T11:40:19;2.25;;;1.30;;
2211;SDS011;48849;48.758;9.158;2023-01-08T11:45:47;1.38;;;1.27;;
2211;SDS011;48849;48.758;9.158;2023-01-08T11:48:30;2.25;;;1.23;;
2211;SDS011;48849;48.758;9.158;2023-01-08T11:54:11;1.40;;;1.30;;
2211;SDS011;48849;48.758;9.158;2023-01-08T11:56:58;1.42;;;1.33;;
2211;SDS011;48849;48.758;9.158;2023-01-08T11:59:39;1.10;;;1.10;;
2211;SDS011;48849;48.758;9.158;2023-01-08T12:02:19;1.33;;;1.00;;
2211;SDS011;48849;48.758;9.158;2023-01-08T12:04:56;1.40;;;1.27;;
2211;SDS011;48849;48.758;9.158;2023-01-08T12:07:36;1.20;;;1.10;;
2211;SDS011;48849;48.758;9.158;2023-01-08T12:10:12;1.52;;;1.30;;
2211;SDS011;48849;48.758;9.158;2023-01-08T12:12:47;1.85;;;1.30;;
2211;SDS011;48849;48.758;9.158;2023-01-08T12:15:23;1.25;;;1.15;;
2211;SDS011;48849;48.758;9.158;2023-01-08T12:18:07;1.67;;;1.50;;
2211;SDS011;48849;48.758;9.158;2023-01-08T12:20:46;1.00;;;1.00;;
2211;SDS011;48849;48.758;9.158;2023-01-08T12:23:23;1.67;;;1.42;;
2211;SDS011;48849;48.758;9.158;2023-01-08T12:26:02;1.30;;;1.20;;
2211;SDS011;48849;48.758;9.158;2023-01-08T12:28:40;2.33;;;1.70;;
2211;SDS011;48849;48.758;9.158;2023-01-08T12:31:30;2.72;;;2.33;;
2211;SDS011;48849;48.758;9.158;2023-01-08T12:34:14;1.48;;;1.30;;
2211;SDS011;48849;48.758;9.158;2023-01-08T12:36:45;1.20;;;1.10;;
2211;SDS011;48849;48.758;9.158;2023-01-08T12:39:19;5.00;;;1.73;;
2211;SDS011;48849;48.758;9.158;2023-01-08T12:41:48;1.00;;;0.90;;
2211;SDS011;48849;48.758;9.158;2023-01-08T12:44:18;1.25;;;1.15;;
2211;SDS011;48849;48.758;9.158;2023-01-08T12:46:49;1.33;;;1.23;;
2211;SDS011;48849;48.758;9.158;2023-01-08T12:49:22;0.90;;;0.90;;
2211;SDS011;48849;48.758;9.158;2023-01-08T12:51:59;1.40;;;1.15;;
2211;SDS011;48849;48.758;9.158;2023-01-08T12:54:35;0.88;;;0.80;;
2211;SDS011;48849;48.758;9.158;2023-01-08T12:57:10;1.40;;;1.20;;
2211;SDS011;48849;48.758;9.158;2023-01-08T12:59:41;1.42;;;1.33;;
2211;SDS011;48849;48.758;9.158;2023-01-08T13:02:14;1.30;;;1.20;;
2211;SDS011;48849;48.758;9.158;2023-01-08T13:05:09;1.40;;;1.30;;
2211;SDS011;48849;48.758;9.158;2023-01-08T13:07:37;1.30;;;1.20;;
2211;SDS011;48849;48.758;9.158;2023-01-08T13:10:19;1.55;;;1.42;;
2211;SDS011;48849;48.758;9.158;2023-01-08T13:12:53;1.30;;;1.20;;
2211;SDS011;48849;48.758;9.158;2023-01-08T13:15:22;1.30;;;1.20;;
2211;SDS011;48849;48.758;9.158;2023-01-08T13:17:51;2.13;;;1.30;;
2211;SDS011;48849;48.758;9.158;2023-01-08T13:20:22;1.35;;;1.25;;
2211;SDS011;48849;48.758;9.158;2023-01-08T13:22:51;1.73;;;1.60;;
2211;SDS011;48849;48.758;9.158;2023-01-08T13:25:28;1.42;;;1.30;;
2211;SDS011;48849;48.758;9.158;2023-01-08T13:27:57;1.30;;;1.20;;
2211;SDS011;48849;48.758;9.158;2023-01-08T13:30:31;1.45;;;1.20;;
2211;SDS011;48849;48.758;9.158;2023-01-08T13:33:02;1.20;;;1.10;;
2211;SDS011;48849;48.758;9.158;2023-01-08T13:35:48;1.20;;;1.10;;
2211;SDS011;48849;48.758;9.158;2023-01-08T13:38:15;3.97;;;2.10;;
2211;SDS011;48849;48.758;9.158;2023-01-08T13:40:54;2.40;;;1.80;;
2211;SDS011;48849;48.758;9.158;2023-01-08T13:43:22;1.58;;;1.48;;
2211;SDS011;48849;48.758;9.158;2023-01-08T13:45:53;1.75;;;1.50;;
2211;SDS011;48849;48.758;9.158;2023-01-08T13:48:31;2.15;;;1.30;;
2211;SDS011;48849;48.758;9.158;2023-01-08T13:51:00;2.05;;;1.80;;
2211;SDS011;48849;48.758;9.158;2023-01-08T13:53:27;1.13;;;1.02;;
2211;SDS011;48849;48.758;9.158;2023-01-08T13:55:56;3.75;;;1.50;;
2211;SDS011;48849;48.758;9.158;2023-01-08T13:58:25;1.45;;;1.35;;
2211;SDS011;48849;48.758;9.158;2023-01-08T14:00:54;1.88;;;1.30;;
2211;SDS011;48849;48.758;9.158;2023-01-08T14:03:22;1.60;;;1.40;;
2211;SDS011;48849;48.758;9.158;2023-01-08T14:05:50;2.88;;;2.40;;
2211;SDS011;48849;48.758;9.158;2023-01-08T14:08:20;2.88;;;2.33;;
2211;SDS011;48849;48.758;9.158;2023-01-08T14:10:48;2.25;;;1.70;;
2211;SDS011;48849;48.758;9.158;2023-01-08T14:13:16;1.73;;;1.60;;
2211;SDS011;48849;48.758;9.158;2023-01-08T14:15:44;2.20;;;1.70;;
2211;SDS011;48849;48.758;9.158;2023-01-08T14:18:12;2.63;;;1.63;;
2211;SDS011;48849;48.758;9.158;2023-01-08T14:20:40;2.45;;;1.67;;
2211;SDS011;48849;48.758;9.158;2023-01-08T14:23:17;1.70;;;1.60;;
2211;SDS011;48849;48.758;9.158;2023-01-08T14:25:46;1.90;;;1.75;;
2211;SDS011;48849;48.758;9.158;2023-01-08T14:28:16;2.00;;;1.58;;
2211;SDS011;48849;48.758;9.158;2023-01-08T14:30:48;2.60;;;2.25;;
2211;SDS011;48849;48.758;9.158;2023-01-08T14:33:15;1.60;;;1.50;;
2211;SDS011;48849;48.758;9.158;2023-01-08T14:35:44;1.45;;;1.35;;
2211;SDS011;48849;48.758;9.158;2023-01-08T14:38:12;1.70;;;1.60;;
2211;SDS011;48849;48.758;9.158;2023-01-08T14:40:40;1.30;;;1.15;;
2211;SDS011;48849;48.758;9.158;2023-01-08T14:43:11;1.30;;;1.20;;
2211;SDS011;48849;48.758;9.158;2023-01-08T14:45:45;1.40;;;1.20;;
2211;SDS011;48849;48.758;9.158;2023-01-08T14:48:15;1.13;;;1.02;;
2211;SDS011;48849;48.758;9.158;2023-01-08T14:50:51;2.45;;;1.30;;
2211;SDS011;48849;48.758;9.158;2023-01-08T14:53:28;1.27;;;1.02;;
2211;SDS011;48849;48.758;9.158;2023-01-08T14:55:58;1.67;;;1.17;;
2211;SDS011;48849;48.758;9.158;2023-01-08T14:58:27;1.45;;;0.80;;
2211;SDS011;48849;48.758;9.158;2023-01-08T15:01:01;1.30;;;1.00;;
2211;SDS011;48849;48.758;9.158;2023-01-08T15:03:33;1.20;;;1.10;;
2211;SDS011;48849;48.758;9.158;2023-01-08T15:06:01;1.98;;;1.10;;
2211;SDS011;48849;48.758;9.158;2023-01-08T15:08:33;2.10;;;1.00;;
2211;SDS011;48849;48.758;9.158;2023-01-08T15:11:01;1.33;;;1.00;;
2211;SDS011;48849;48.758;9.158;2023-01-08T15:13:30;1.00;;;0.90;;
2211;SDS011;48849;48.758;9.158;2023-01-08T15:16:03;4.90;;;1.30;;
2211;SDS011;48849;48.758;9.158;2023-01-08T15:18:33;1.42;;;1.20;;